sensor_id;sensor_type;location;lat;lon;timestamp;P1;durP1;ratioP1;P2;durP2;ratioP2
5981;SDS011;3018;48.730;9.336;2023-06-26T00:00:23;8.30;;;7.40;;
5981;SDS011;3018;48.730;9.336;2023-06-26T00:02:49;10.40;;;8.02;;
5981;SDS011;3018;48.730;9.336;2023-06-26T00:05:15;8.93;;;7.70;;
5981;SDS011;3018;48.730;9.336;2023-06-26T00:07:42;7.63;;;7.03;;
5981;SDS011;3018;48.730;9.336;2023-06-26T00:10:08;8.68;;;7.88;;
5981;SDS011;3018;48.730;9.336;2023-06-26T00:12:36;8.63;;;7.78;;
5981;SDS011;3018;48.730;9.336;2023-06-26T00:15:02;8.18;;;7.40;;
5981;SDS011;3018;48.730;9.336;2023-06-26T00:17:29;8.75;;;7.50;;
5981;SDS011;3018;48.730;9.336;2023-06-26T00:19:55;8.50;;;7.60;;
5981;SDS011;3018;48.730;9.336;2023-06-26T00:22:21;8.35;;;7.57;;
5981;SDS011;3018;48.730;9.336;2023-06-26T00:24:47;8.05;;;7.35;;
5981;SDS011;3018;48.730;9.336;2023-06-26T00:27:14;9.45;;;7.85;;
5981;SDS011;3018;48.730;9.336;2023-06-26T00:29:42;8.45;;;7.63;;
5981;SDS011;3018;48.730;9.336;2023-06-26T00:32:08;8.95;;;8.05;;
5981;SDS011;3018;48.730;9.336;2023-06-26T00:34:34;8.50;;;7.70;;
5981;SDS011;3018;48.730;9.336;2023-06-26T00:37:00;9.57;;;7.93;;
5981;SDS011;3018;48.730;9.336;2023-06-26T00:39:27;11.18;;;6.93;;
5981;SDS011;3018;48.730;9.336;2023-06-26T00:41:53;8.45;;;7.65;;
5981;SDS011;3018;48.730;9.336;2023-06-26T00:44:19;8.52;;;7.72;;
5981;SDS011;3018;48.730;9.336;2023-06-26T00:46:47;9.00;;;7.95;;
5981;SDS011;3018;48.730;9.336;2023-06-26T00:49:13;11.15;;;8.27;;
5981;SDS011;3018;48.730;9.336;2023-06-26T00:51:40;9.02;;;8.20;;
5981;SDS011;3018;48.730;9.336;2023-06-26T00:54:06;9.38;;;8.27;;
5981;SDS011;3018;48.730;9.336;2023-06-26T00:56:32;8.43;;;7.65;;
5981;SDS011;3018;48.730;9.336;2023-06-26T00:58:58;9.30;;;8.45;;
5981;SDS011;3018;48.730;9.336;2023-06-26T01:01:25;7.80;;;7.18;;
5981;SDS011;3018;48.730;9.336;2023-06-26T01:03:52;8.40;;;7.60;;
5981;SDS011;3018;48.730;9.336;2023-06-26T01:06:20;8.70;;;7.80;;
5981;SDS011;3018;48.730;9.336;2023-06-26T01:08:46;8.55;;;7.38;;
5981;SDS011;3018;48.730;9.336;2023-06-26T01:11:13;8.65;;;7.80;;
5981;SDS011;3018;48.730;9.336;2023-06-26T01:13:40;9.43;;;8.02;;
5981;SDS011;3018;48.730;9.336;2023-06-26T01:16:07;8.35;;;7.65;;
5981;SDS011;3018;48.730;9.336;2023-06-26T01:18:33;9.75;;;7.88;;
5981;SDS011;3018;48.730;9.336;2023-06-26T01:21:02;9.10;;;8.27;;
5981;SDS011;3018;48.730;9.336;2023-06-26T01:23:30;8.95;;;8.10;;
5981;SDS011;3018;48.730;9.336;2023-06-26T01:26:07;8.98;;;7.95;;
5981;SDS011;3018;48.730;9.336;2023-06-26T01:28:35;9.10;;;7.90;;
5981;SDS011;3018;48.730;9.336;2023-06-26T01:31:03;9.27;;;8.27;;
5981;SDS011;3018;48.730;9.336;2023-06-26T01:33:30;8.70;;;7.90;;
5981;SDS011;3018;48.730;9.336;2023-06-26T01:35:57;9.18;;;7.97;;
5981;SDS011;3018;48.730;9.336;2023-06-26T01:38:23;8.90;;;7.95;;
5981;SDS011;3018;48.730;9.336;2023-06-26T01:40:50;8.07;;;7.38;;
5981;SDS011;3018;48.730;9.336;2023-06-26T01:43:20;9.05;;;8.18;;
5981;SDS011;3018;48.730;9.336;2023-06-26T01:45:50;8.15;;;7.35;;
5981;SDS011;3018;48.730;9.336;2023-06-26T01:48:17;8.98;;;8.07;;
5981;SDS011;3018;48.730;9.336;2023-06-26T01:50:46;7.95;;;7.28;;
5981;SDS011;3018;48.730;9.336;2023-06-26T01:53:15;8.30;;;7.50;;
5981;SDS011;3018;48.730;9.336;2023-06-26T01:55:44;8.80;;;7.97;;
5981;SDS011;3018;48.730;9.336;2023-06-26T01:58:12;8.13;;;7.40;;
5981;SDS011;3018;48.730;9.336;2023-06-26T02:00:40;9.40;;;8.50;;
5981;SDS011;3018;48.730;9.336;2023-06-26T02:03:07;9.57;;;7.85;;
5981;SDS011;3018;48.730;9.336;2023-06-26T02:05:33;8.25;;;7.50;;
5981;SDS011;3018;48.730;9.336;2023-06-26T02:08:00;12.15;;;8.13;;
5981;SDS011;3018;48.730;9.336;2023-06-26T02:10:27;10.07;;;8.30;;
5981;SDS011;3018;48.730;9.336;2023-06-26T02:12:54;8.90;;;8.00;;
5981;SDS011;3018;48.730;9.336;2023-06-26T02:15:21;8.85;;;8.05;;
5981;SDS011;3018;48.730;9.336;2023-06-26T02:17:49;8.50;;;7.70;;
5981;SDS011;3018;48.730;9.336;2023-06-26T02:20:15;9.27;;;8.38;;
5981;SDS011;3018;48.730;9.336;2023-06-26T02:22:41;9.35;;;8.45;;
5981;SDS011;3018;48.730;9.336;2023-06-26T02:25:08;9.25;;;8.45;;
5981;SDS011;3018;48.730;9.336;2023-06-26T02:27:34;9.10;;;8.20;;
5981;SDS011;3018;48.730;9.336;2023-06-26T02:30:01;9.20;;;8.25;;
5981;SDS011;3018;48.730;9.336;2023-06-26T02:32:27;10.80;;;8.55;;
5981;SDS011;3018;48.730;9.336;2023-06-26T02:34:55;9.57;;;8.70;;
5981;SDS011;3018;48.730;9.336;2023-06-26T02:37:21;9.30;;;8.50;;
5981;SDS011;3018;48.730;9.336;2023-06-26T02:39:47;9.25;;;8.35;;
5981;SDS011;3018;48.730;9.336;2023-06-26T02:42:14;9.00;;;8.10;;
5981;SDS011;3018;48.730;9.336;2023-06-26T02:44:40;10.63;;;8.82;;
5981;SDS011;3018;48.730;9.336;2023-06-26T02:47:06;9.10;;;8.30;;
5981;SDS011;3018;48.730;9.336;2023-06-26T02:49:32;9.40;;;7.90;;
5981;SDS011;3018;48.730;9.336;2023-06-26T02:52:00;10.18;;;8.63;;
5981;SDS011;3018;48.730;9.336;2023-06-26T02:54:26;8.98;;;8.02;;
5981;SDS011;3018;48.730;9.336;2023-06-26T02:56:53;8.32;;;7.32;;
5981;SDS011;3018;48.730;9.336;2023-06-26T02:59:19;11.07;;;8.93;;
5981;SDS011;3018;48.730;9.336;2023-06-26T03:01:45;10.50;;;9.02;;
5981;SDS011;3018;48.730;9.336;2023-06-26T03:04:11;8.65;;;7.85;;
5981;SDS011;3018;48.730;9.336;2023-06-26T03:06:38;10.48;;;8.55;;
5981;SDS011;3018;48.730;9.336;2023-06-26T03:09:05;11.48;;;8.82;;
5981;SDS011;3018;48.730;9.336;2023-06-26T03:11:32;9.35;;;8.38;;
5981;SDS011;3018;48.730;9.336;2023-06-26T03:13:58;10.40;;;9.18;;
5981;SDS011;3018;48.730;9.336;2023-06-26T03:16:24;9.57;;;8.68;;
5981;SDS011;3018;48.730;9.336;2023-06-26T03:18:50;9.23;;;8.32;;
5981;SDS011;3018;48.730;9.336;2023-06-26T03:21:17;11.35;;;7.95;;
5981;SDS011;3018;48.730;9.336;2023-06-26T03:23:43;12.18;;;8.88;;
5981;SDS011;3018;48.730;9.336;2023-06-26T03:26:11;10.73;;;8.85;;
5981;SDS011;3018;48.730;9.336;2023-06-26T03:28:39;9.70;;;8.80;;
5981;SDS011;3018;48.730;9.336;2023-06-26T03:31:05;11.15;;;9.07;;
5981;SDS011;3018;48.730;9.336;2023-06-26T03:33:32;8.82;;;8.00;;
5981;SDS011;3018;48.730;9.336;2023-06-26T03:35:58;9.57;;;8.68;;
5981;SDS011;3018;48.730;9.336;2023-06-26T03:38:24;9.93;;;8.98;;
5981;SDS011;3018;48.730;9.336;2023-06-26T03:40:51;10.27;;;8.90;;
5981;SDS011;3018;48.730;9.336;2023-06-26T03:43:19;13.10;;;8.50;;
5981;SDS011;3018;48.730;9.336;2023-06-26T03:45:45;8.70;;;7.97;;
5981;SDS011;3018;48.730;9.336;2023-06-26T03:48:11;10.07;;;8.88;;
5981;SDS011;3018;48.730;9.336;2023-06-26T03:50:38;10.68;;;8.63;;
5981;SDS011;3018;48.730;9.336;2023-06-26T03:53:04;9.20;;;8.30;;
5981;SDS011;3018;48.730;9.336;2023-06-26T03:55:30;10.98;;;8.93;;
5981;SDS011;3018;48.730;9.336;2023-06-26T03:57:56;10.77;;;9.77;;
5981;SDS011;3018;48.730;9.336;2023-06-26T04:00:24;9.65;;;8.70;;
5981;SDS011;3018;48.730;9.336;2023-06-26T04:02:50;9.45;;;8.55;;
5981;SDS011;3018;48.730;9.336;2023-06-26T04:05:17;10.05;;;9.05;;
5981;SDS011;3018;48.730;9.336;2023-06-26T04:07:43;11.80;;;9.00;;
5981;SDS011;3018;48.730;9.336;2023-06-26T04:10:09;9.75;;;8.65;;
5981;SDS011;3018;48.730;9.336;2023-06-26T04:12:36;10.38;;;9.32;;
5981;SDS011;3018;48.730;9.336;2023-06-26T04:15:02;9.77;;;8.77;;
5981;SDS011;3018;48.730;9.336;2023-06-26T04:17:30;9.60;;;8.63;;
5981;SDS011;3018;48.730;9.336;2023-06-26T04:19:56;11.48;;;9.43;;
5981;SDS011;3018;48.730;9.336;2023-06-26T04:22:22;9.82;;;8.88;;
5981;SDS011;3018;48.730;9.336;2023-06-26T04:24:48;11.98;;;8.98;;
5981;SDS011;3018;48.730;9.336;2023-06-26T04:27:15;9.70;;;8.70;;
5981;SDS011;3018;48.730;9.336;2023-06-26T04:29:41;8.90;;;8.00;;
5981;SDS011;3018;48.730;9.336;2023-06-26T04:32:07;9.85;;;8.75;;
5981;SDS011;3018;48.730;9.336;2023-06-26T04:34:35;9.52;;;8.52;;
5981;SDS011;3018;48.730;9.336;2023-06-26T04:37:06;10.00;;;8.40;;
5981;SDS011;3018;48.730;9.336;2023-06-26T04:39:32;9.35;;;8.45;;
5981;SDS011;3018;48.730;9.336;2023-06-26T04:41:58;9.20;;;8.18;;
5981;SDS011;3018;48.730;9.336;2023-06-26T04:44:24;12.02;;;9.10;;
5981;SDS011;3018;48.730;9.336;2023-06-26T04:46:51;9.43;;;8.27;;
5981;SDS011;3018;48.730;9.336;2023-06-26T04:49:17;13.25;;;9.43;;
5981;SDS011;3018;48.730;9.336;2023-06-26T04:51:46;10.38;;;8.88;;
5981;SDS011;3018;48.730;9.336;2023-06-26T04:54:13;12.38;;;8.60;;
5981;SDS011;3018;48.730;9.336;2023-06-26T04:56:39;11.20;;;8.95;;
5981;SDS011;3018;48.730;9.336;2023-06-26T04:59:06;11.20;;;9.27;;
5981;SDS011;3018;48.730;9.336;2023-06-26T05:01:32;10.32;;;9.18;;
5981;SDS011;3018;48.730;9.336;2023-06-26T05:03:59;10.13;;;9.13;;
5981;SDS011;3018;48.730;9.336;2023-06-26T05:06:25;12.10;;;8.77;;
5981;SDS011;3018;48.730;9.336;2023-06-26T05:08:52;10.15;;;9.15;;
5981;SDS011;3018;48.730;9.336;2023-06-26T05:11:19;10.77;;;8.75;;
5981;SDS011;3018;48.730;9.336;2023-06-26T05:13:45;9.70;;;8.68;;
5981;SDS011;3018;48.730;9.336;2023-06-26T05:16:11;11.70;;;8.57;;
5981;SDS011;3018;48.730;9.336;2023-06-26T05:18:38;10.07;;;8.73;;
5981;SDS011;3018;48.730;9.336;2023-06-26T05:21:04;9.43;;;8.30;;
5981;SDS011;3018;48.730;9.336;2023-06-26T05:23:31;9.68;;;8.73;;
5981;SDS011;3018;48.730;9.336;2023-06-26T05:25:59;10.38;;;8.18;;
5981;SDS011;3018;48.730;9.336;2023-06-26T05:28:25;12.25;;;8.75;;
5981;SDS011;3018;48.730;9.336;2023-06-26T05:30:52;9.20;;;8.30;;
5981;SDS011;3018;48.730;9.336;2023-06-26T05:33:19;8.65;;;7.75;;
5981;SDS011;3018;48.730;9.336;2023-06-26T05:35:47;10.10;;;8.60;;
5981;SDS011;3018;48.730;9.336;2023-06-26T05:38:14;8.55;;;7.75;;
5981;SDS011;3018;48.730;9.336;2023-06-26T05:40:40;8.75;;;7.95;;
5981;SDS011;3018;48.730;9.336;2023-06-26T05:43:08;9.48;;;7.50;;
5981;SDS011;3018;48.730;9.336;2023-06-26T05:45:35;13.07;;;8.20;;
5981;SDS011;3018;48.730;9.336;2023-06-26T05:48:01;11.15;;;7.95;;
5981;SDS011;3018;48.730;9.336;2023-06-26T05:50:28;8.35;;;7.03;;
5981;SDS011;3018;48.730;9.336;2023-06-26T05:52:55;8.77;;;7.75;;
5981;SDS011;3018;48.730;9.336;2023-06-26T05:55:21;8.05;;;7.25;;
5981;SDS011;3018;48.730;9.336;2023-06-26T05:57:48;8.15;;;7.32;;
5981;SDS011;3018;48.730;9.336;2023-06-26T06:00:17;8.13;;;7.32;;
5981;SDS011;3018;48.730;9.336;2023-06-26T06:02:44;7.97;;;7.18;;
5981;SDS011;3018;48.730;9.336;2023-06-26T06:05:10;8.35;;;7.50;;
5981;SDS011;3018;48.730;9.336;2023-06-26T06:07:36;8.98;;;8.07;;
5981;SDS011;3018;48.730;9.336;2023-06-26T06:10:03;12.00;;;7.95;;
5981;SDS011;3018;48.730;9.336;2023-06-26T06:12:30;8.15;;;7.45;;
5981;SDS011;3018;48.730;9.336;2023-06-26T06:14:56;10.07;;;8.05;;
5981;SDS011;3018;48.730;9.336;2023-06-26T06:17:24;10.68;;;7.93;;
5981;SDS011;3018;48.730;9.336;2023-06-26T06:19:50;10.35;;;7.97;;
5981;SDS011;3018;48.730;9.336;2023-06-26T06:22:16;12.88;;;7.65;;
5981;SDS011;3018;48.730;9.336;2023-06-26T06:24:43;10.02;;;7.60;;
5981;SDS011;3018;48.730;9.336;2023-06-26T06:27:10;8.43;;;7.68;;
5981;SDS011;3018;48.730;9.336;2023-06-26T06:29:36;12.35;;;8.15;;
5981;SDS011;3018;48.730;9.336;2023-06-26T06:32:02;8.40;;;7.47;;
5981;SDS011;3018;48.730;9.336;2023-06-26T06:34:30;8.52;;;7.68;;
5981;SDS011;3018;48.730;9.336;2023-06-26T06:36:56;8.48;;;7.68;;
5981;SDS011;3018;48.730;9.336;2023-06-26T06:39:23;10.07;;;8.18;;
5981;SDS011;3018;48.730;9.336;2023-06-26T06:41:49;8.52;;;7.68;;
5981;SDS011;3018;48.730;9.336;2023-06-26T06:44:15;8.68;;;7.55;;
5981;SDS011;3018;48.730;9.336;2023-06-26T06:46:41;8.68;;;7.72;;
5981;SDS011;3018;48.730;9.336;2023-06-26T06:49:08;8.70;;;7.80;;
5981;SDS011;3018;48.730;9.336;2023-06-26T06:51:36;8.98;;;7.28;;
5981;SDS011;3018;48.730;9.336;2023-06-26T06:54:02;8.77;;;7.85;;
5981;SDS011;3018;48.730;9.336;2023-06-26T06:56:28;9.02;;;7.90;;
5981;SDS011;3018;48.730;9.336;2023-06-26T06:58:55;9.80;;;7.88;;
5981;SDS011;3018;48.730;9.336;2023-06-26T07:01:21;8.40;;;7.65;;
5981;SDS011;3018;48.730;9.336;2023-06-26T07:03:47;10.40;;;8.00;;
5981;SDS011;3018;48.730;9.336;2023-06-26T07:06:13;8.23;;;7.30;;
5981;SDS011;3018;48.730;9.336;2023-06-26T07:08:41;10.75;;;8.50;;
5981;SDS011;3018;48.730;9.336;2023-06-26T07:11:07;9.15;;;7.50;;
5981;SDS011;3018;48.730;9.336;2023-06-26T07:13:33;8.05;;;7.25;;
5981;SDS011;3018;48.730;9.336;2023-06-26T07:16:00;7.80;;;6.97;;
5981;SDS011;3018;48.730;9.336;2023-06-26T07:18:26;7.90;;;7.10;;
5981;SDS011;3018;48.730;9.336;2023-06-26T07:20:52;10.00;;;7.95;;
5981;SDS011;3018;48.730;9.336;2023-06-26T07:23:19;7.55;;;6.80;;
5981;SDS011;3018;48.730;9.336;2023-06-26T07:25:46;8.00;;;7.20;;
5981;SDS011;3018;48.730;9.336;2023-06-26T07:28:13;8.10;;;7.30;;
5981;SDS011;3018;48.730;9.336;2023-06-26T07:30:39;10.38;;;7.40;;
5981;SDS011;3018;48.730;9.336;2023-06-26T07:33:05;12.88;;;7.28;;
5981;SDS011;3018;48.730;9.336;2023-06-26T07:35:32;7.63;;;6.88;;
5981;SDS011;3018;48.730;9.336;2023-06-26T07:37:59;8.25;;;7.25;;
5981;SDS011;3018;48.730;9.336;2023-06-26T07:40:25;8.82;;;7.15;;
5981;SDS011;3018;48.730;9.336;2023-06-26T07:42:53;8.02;;;6.68;;
5981;SDS011;3018;48.730;9.336;2023-06-26T07:45:19;7.45;;;6.60;;
5981;SDS011;3018;48.730;9.336;2023-06-26T07:47:46;7.95;;;7.20;;
5981;SDS011;3018;48.730;9.336;2023-06-26T07:50:12;10.60;;;7.13;;
5981;SDS011;3018;48.730;9.336;2023-06-26T07:52:40;10.23;;;7.22;;
5981;SDS011;3018;48.730;9.336;2023-06-26T07:55:07;10.07;;;6.85;;
5981;SDS011;3018;48.730;9.336;2023-06-26T07:57:33;7.13;;;6.50;;
5981;SDS011;3018;48.730;9.336;2023-06-26T08:00:01;7.38;;;6.32;;
5981;SDS011;3018;48.730;9.336;2023-06-26T08:02:27;7.40;;;6.80;;
5981;SDS011;3018;48.730;9.336;2023-06-26T08:04:54;7.55;;;6.15;;
5981;SDS011;3018;48.730;9.336;2023-06-26T08:07:20;7.55;;;6.93;;
5981;SDS011;3018;48.730;9.336;2023-06-26T08:09:46;7.65;;;6.95;;
5981;SDS011;3018;48.730;9.336;2023-06-26T08:12:13;7.80;;;6.72;;
5981;SDS011;3018;48.730;9.336;2023-06-26T08:14:39;8.68;;;7.15;;
5981;SDS011;3018;48.730;9.336;2023-06-26T08:17:06;7.13;;;6.30;;
5981;SDS011;3018;48.730;9.336;2023-06-26T08:19:33;6.85;;;6.35;;
5981;SDS011;3018;48.730;9.336;2023-06-26T08:21:59;7.32;;;5.95;;
5981;SDS011;3018;48.730;9.336;2023-06-26T08:24:25;6.55;;;5.47;;
5981;SDS011;3018;48.730;9.336;2023-06-26T08:26:51;7.40;;;6.13;;
5981;SDS011;3018;48.730;9.336;2023-06-26T08:29:18;6.43;;;5.78;;
5981;SDS011;3018;48.730;9.336;2023-06-26T08:31:44;6.60;;;6.10;;
5981;SDS011;3018;48.730;9.336;2023-06-26T08:34:11;10.88;;;6.30;;
5981;SDS011;3018;48.730;9.336;2023-06-26T08:36:38;6.53;;;6.03;;
5981;SDS011;3018;48.730;9.336;2023-06-26T08:39:04;6.70;;;6.18;;
5981;SDS011;3018;48.730;9.336;2023-06-26T08:41:31;7.15;;;5.88;;
5981;SDS011;3018;48.730;9.336;2023-06-26T08:43:57;6.55;;;5.95;;
5981;SDS011;3018;48.730;9.336;2023-06-26T08:46:23;6.40;;;5.80;;
5981;SDS011;3018;48.730;9.336;2023-06-26T08:48:52;7.43;;;5.75;;
5981;SDS011;3018;48.730;9.336;2023-06-26T08:51:23;8.40;;;6.40;;
5981;SDS011;3018;48.730;9.336;2023-06-26T08:53:51;7.90;;;5.90;;
5981;SDS011;3018;48.730;9.336;2023-06-26T08:56:18;6.65;;;5.80;;
5981;SDS011;3018;48.730;9.336;2023-06-26T08:58:46;6.18;;;5.72;;
5981;SDS011;3018;48.730;9.336;2023-06-26T09:01:12;5.65;;;5.15;;
5981;SDS011;3018;48.730;9.336;2023-06-26T09:03:39;6.88;;;5.72;;
5981;SDS011;3018;48.730;9.336;2023-06-26T09:06:06;8.65;;;5.57;;
5981;SDS011;3018;48.730;9.336;2023-06-26T09:08:34;5.82;;;5.43;;
5981;SDS011;3018;48.730;9.336;2023-06-26T09:11:00;5.32;;;4.82;;
5981;SDS011;3018;48.730;9.336;2023-06-26T09:13:28;5.82;;;5.30;;
5981;SDS011;3018;48.730;9.336;2023-06-26T09:15:54;6.28;;;5.80;;
5981;SDS011;3018;48.730;9.336;2023-06-26T09:18:21;8.00;;;5.45;;
5981;SDS011;3018;48.730;9.336;2023-06-26T09:20:47;5.50;;;5.00;;
5981;SDS011;3018;48.730;9.336;2023-06-26T09:23:22;5.93;;;5.28;;
5981;SDS011;3018;48.730;9.336;2023-06-26T09:25:50;5.25;;;4.75;;
5981;SDS011;3018;48.730;9.336;2023-06-26T09:28:17;5.85;;;5.35;;
5981;SDS011;3018;48.730;9.336;2023-06-26T09:30:44;6.18;;;5.60;;
5981;SDS011;3018;48.730;9.336;2023-06-26T09:33:12;8.65;;;5.28;;
5981;SDS011;3018;48.730;9.336;2023-06-26T09:35:39;6.00;;;5.35;;
5981;SDS011;3018;48.730;9.336;2023-06-26T09:38:05;6.75;;;5.47;;
5981;SDS011;3018;48.730;9.336;2023-06-26T09:40:31;6.45;;;5.38;;
5981;SDS011;3018;48.730;9.336;2023-06-26T09:43:03;6.50;;;5.10;;
5981;SDS011;3018;48.730;9.336;2023-06-26T09:45:30;7.28;;;5.25;;
5981;SDS011;3018;48.730;9.336;2023-06-26T09:47:59;5.80;;;5.40;;
5981;SDS011;3018;48.730;9.336;2023-06-26T09:50:27;6.18;;;5.05;;
5981;SDS011;3018;48.730;9.336;2023-06-26T09:52:53;5.47;;;4.97;;
5981;SDS011;3018;48.730;9.336;2023-06-26T09:55:19;5.88;;;5.15;;
5981;SDS011;3018;48.730;9.336;2023-06-26T09:57:47;5.38;;;4.88;;
5981;SDS011;3018;48.730;9.336;2023-06-26T10:00:16;6.13;;;4.78;;
5981;SDS011;3018;48.730;9.336;2023-06-26T10:02:42;5.10;;;4.70;;
5981;SDS011;3018;48.730;9.336;2023-06-26T10:05:08;9.50;;;4.97;;
5981;SDS011;3018;48.730;9.336;2023-06-26T10:07:35;8.38;;;5.72;;
5981;SDS011;3018;48.730;9.336;2023-06-26T10:10:02;5.90;;;5.18;;
5981;SDS011;3018;48.730;9.336;2023-06-26T10:12:29;5.28;;;4.60;;
5981;SDS011;3018;48.730;9.336;2023-06-26T10:14:56;5.00;;;4.70;;
5981;SDS011;3018;48.730;9.336;2023-06-26T10:17:24;8.65;;;5.35;;
5981;SDS011;3018;48.730;9.336;2023-06-26T10:19:51;6.40;;;4.90;;
5981;SDS011;3018;48.730;9.336;2023-06-26T10:22:20;4.93;;;4.63;;
5981;SDS011;3018;48.730;9.336;2023-06-26T10:24:47;5.05;;;4.57;;
5981;SDS011;3018;48.730;9.336;2023-06-26T10:27:15;5.78;;;5.07;;
5981;SDS011;3018;48.730;9.336;2023-06-26T10:29:42;8.48;;;4.82;;
5981;SDS011;3018;48.730;9.336;2023-06-26T10:32:10;6.05;;;4.63;;
5981;SDS011;3018;48.730;9.336;2023-06-26T10:34:39;5.47;;;4.45;;
5981;SDS011;3018;48.730;9.336;2023-06-26T10:37:06;5.78;;;4.43;;
5981;SDS011;3018;48.730;9.336;2023-06-26T10:39:39;6.18;;;4.40;;
5981;SDS011;3018;48.730;9.336;2023-06-26T10:42:11;5.68;;;5.15;;
5981;SDS011;3018;48.730;9.336;2023-06-26T10:44:41;8.60;;;5.45;;
5981;SDS011;3018;48.730;9.336;2023-06-26T10:47:08;6.03;;;5.05;;
5981;SDS011;3018;48.730;9.336;2023-06-26T10:49:35;5.93;;;5.43;;
5981;SDS011;3018;48.730;9.336;2023-06-26T10:52:03;8.13;;;5.50;;
5981;SDS011;3018;48.730;9.336;2023-06-26T10:54:30;5.82;;;5.15;;
5981;SDS011;3018;48.730;9.336;2023-06-26T10:56:57;9.07;;;5.72;;
5981;SDS011;3018;48.730;9.336;2023-06-26T10:59:24;9.40;;;5.55;;
5981;SDS011;3018;48.730;9.336;2023-06-26T11:01:54;5.82;;;5.43;;
5981;SDS011;3018;48.730;9.336;2023-06-26T11:04:35;12.70;;;6.22;;
5981;SDS011;3018;48.730;9.336;2023-06-26T11:07:15;10.45;;;6.10;;
5981;SDS011;3018;48.730;9.336;2023-06-26T11:09:57;6.88;;;6.13;;
5981;SDS011;3018;48.730;9.336;2023-06-26T11:15:08;6.45;;;5.50;;
5981;SDS011;3018;48.730;9.336;2023-06-26T11:17:35;6.40;;;5.90;;
5981;SDS011;3018;48.730;9.336;2023-06-26T11:20:03;6.10;;;5.50;;
5981;SDS011;3018;48.730;9.336;2023-06-26T11:22:31;6.93;;;5.82;;
5981;SDS011;3018;48.730;9.336;2023-06-26T11:25:01;7.28;;;5.88;;
5981;SDS011;3018;48.730;9.336;2023-06-26T11:27:30;6.28;;;5.75;;
5981;SDS011;3018;48.730;9.336;2023-06-26T11:29:57;6.15;;;5.63;;
5981;SDS011;3018;48.730;9.336;2023-06-26T11:32:25;5.88;;;5.47;;
5981;SDS011;3018;48.730;9.336;2023-06-26T11:34:52;6.63;;;6.05;;
5981;SDS011;3018;48.730;9.336;2023-06-26T11:37:19;6.63;;;5.68;;
5981;SDS011;3018;48.730;9.336;2023-06-26T11:39:45;8.13;;;6.18;;
5981;SDS011;3018;48.730;9.336;2023-06-26T11:42:13;11.35;;;6.28;;
5981;SDS011;3018;48.730;9.336;2023-06-26T11:44:40;6.88;;;5.35;;
5981;SDS011;3018;48.730;9.336;2023-06-26T11:47:07;7.03;;;5.95;;
5981;SDS011;3018;48.730;9.336;2023-06-26T11:49:33;7.03;;;6.05;;
5981;SDS011;3018;48.730;9.336;2023-06-26T11:51:59;7.22;;;5.88;;
5981;SDS011;3018;48.730;9.336;2023-06-26T11:54:28;6.03;;;5.63;;
5981;SDS011;3018;48.730;9.336;2023-06-26T11:56:56;6.63;;;5.97;;
5981;SDS011;3018;48.730;9.336;2023-06-26T11:59:31;6.20;;;5.70;;
5981;SDS011;3018;48.730;9.336;2023-06-26T12:01:57;5.93;;;5.40;;
5981;SDS011;3018;48.730;9.336;2023-06-26T12:04:23;7.20;;;6.07;;
5981;SDS011;3018;48.730;9.336;2023-06-26T12:06:50;6.15;;;5.43;;
5981;SDS011;3018;48.730;9.336;2023-06-26T12:09:17;5.97;;;5.57;;
5981;SDS011;3018;48.730;9.336;2023-06-26T12:11:44;7.18;;;6.13;;
5981;SDS011;3018;48.730;9.336;2023-06-26T12:14:12;6.70;;;6.15;;
5981;SDS011;3018;48.730;9.336;2023-06-26T12:16:40;6.32;;;5.70;;
5981;SDS011;3018;48.730;9.336;2023-06-26T12:19:07;6.28;;;5.72;;
5981;SDS011;3018;48.730;9.336;2023-06-26T12:21:47;9.35;;;5.82;;
5981;SDS011;3018;48.730;9.336;2023-06-26T12:24:17;6.75;;;5.70;;
5981;SDS011;3018;48.730;9.336;2023-06-26T12:26:44;7.13;;;6.05;;
5981;SDS011;3018;48.730;9.336;2023-06-26T12:29:11;6.38;;;5.75;;
5981;SDS011;3018;48.730;9.336;2023-06-26T12:31:40;7.30;;;6.70;;
5981;SDS011;3018;48.730;9.336;2023-06-26T12:34:11;6.47;;;5.88;;
5981;SDS011;3018;48.730;9.336;2023-06-26T12:36:41;9.07;;;5.57;;
5981;SDS011;3018;48.730;9.336;2023-06-26T12:39:09;8.85;;;5.97;;
5981;SDS011;3018;48.730;9.336;2023-06-26T12:41:36;7.13;;;6.18;;
5981;SDS011;3018;48.730;9.336;2023-06-26T12:44:15;5.70;;;5.20;;
5981;SDS011;3018;48.730;9.336;2023-06-26T12:46:43;6.10;;;5.60;;
5981;SDS011;3018;48.730;9.336;2023-06-26T12:49:11;7.13;;;5.90;;
5981;SDS011;3018;48.730;9.336;2023-06-26T12:51:38;9.88;;;6.00;;
5981;SDS011;3018;48.730;9.336;2023-06-26T12:54:06;5.85;;;5.38;;
5981;SDS011;3018;48.730;9.336;2023-06-26T12:56:35;9.82;;;6.35;;
5981;SDS011;3018;48.730;9.336;2023-06-26T12:59:01;7.75;;;5.70;;
5981;SDS011;3018;48.730;9.336;2023-06-26T13:01:27;6.63;;;5.97;;
5981;SDS011;3018;48.730;9.336;2023-06-26T13:03:55;6.05;;;5.55;;
5981;SDS011;3018;48.730;9.336;2023-06-26T13:06:21;11.80;;;6.38;;
5981;SDS011;3018;48.730;9.336;2023-06-26T13:08:47;6.63;;;6.03;;
5981;SDS011;3018;48.730;9.336;2023-06-26T13:11:14;6.07;;;5.50;;
5981;SDS011;3018;48.730;9.336;2023-06-26T13:13:42;6.03;;;5.38;;
5981;SDS011;3018;48.730;9.336;2023-06-26T13:16:08;6.43;;;5.63;;
5981;SDS011;3018;48.730;9.336;2023-06-26T13:18:34;7.40;;;5.65;;
5981;SDS011;3018;48.730;9.336;2023-06-26T13:21:02;7.13;;;5.43;;
5981;SDS011;3018;48.730;9.336;2023-06-26T13:23:28;8.23;;;5.80;;
5981;SDS011;3018;48.730;9.336;2023-06-26T13:25:54;5.95;;;5.45;;
5981;SDS011;3018;48.730;9.336;2023-06-26T13:28:20;7.00;;;5.35;;
5981;SDS011;3018;48.730;9.336;2023-06-26T13:30:47;7.15;;;5.32;;
5981;SDS011;3018;48.730;9.336;2023-06-26T13:33:14;8.65;;;5.68;;
5981;SDS011;3018;48.730;9.336;2023-06-26T13:35:41;7.13;;;5.75;;
5981;SDS011;3018;48.730;9.336;2023-06-26T13:38:08;8.63;;;6.07;;
5981;SDS011;3018;48.730;9.336;2023-06-26T13:40:34;6.13;;;5.63;;
5981;SDS011;3018;48.730;9.336;2023-06-26T13:43:01;5.97;;;5.40;;
5981;SDS011;3018;48.730;9.336;2023-06-26T13:45:28;6.25;;;5.85;;
5981;SDS011;3018;48.730;9.336;2023-06-26T13:47:54;10.00;;;5.68;;
5981;SDS011;3018;48.730;9.336;2023-06-26T13:50:21;5.55;;;5.20;;
5981;SDS011;3018;48.730;9.336;2023-06-26T13:52:47;7.90;;;5.95;;
5981;SDS011;3018;48.730;9.336;2023-06-26T13:55:15;5.93;;;5.43;;
5981;SDS011;3018;48.730;9.336;2023-06-26T13:57:41;9.63;;;5.53;;
5981;SDS011;3018;48.730;9.336;2023-06-26T14:00:08;5.88;;;5.25;;
5981;SDS011;3018;48.730;9.336;2023-06-26T14:02:34;8.50;;;6.30;;
5981;SDS011;3018;48.730;9.336;2023-06-26T14:05:01;6.32;;;5.75;;
5981;SDS011;3018;48.730;9.336;2023-06-26T14:07:29;8.85;;;5.22;;
5981;SDS011;3018;48.730;9.336;2023-06-26T14:09:56;8.70;;;5.35;;
5981;SDS011;3018;48.730;9.336;2023-06-26T14:12:24;8.93;;;5.38;;
5981;SDS011;3018;48.730;9.336;2023-06-26T14:14:51;6.70;;;5.40;;
5981;SDS011;3018;48.730;9.336;2023-06-26T14:17:17;6.78;;;5.20;;
5981;SDS011;3018;48.730;9.336;2023-06-26T14:19:44;5.47;;;4.55;;
5981;SDS011;3018;48.730;9.336;2023-06-26T14:22:11;5.40;;;4.90;;
5981;SDS011;3018;48.730;9.336;2023-06-26T14:24:37;5.95;;;5.13;;
5981;SDS011;3018;48.730;9.336;2023-06-26T14:27:04;8.45;;;4.75;;
5981;SDS011;3018;48.730;9.336;2023-06-26T14:29:32;6.82;;;4.93;;
5981;SDS011;3018;48.730;9.336;2023-06-26T14:31:58;5.00;;;4.60;;
5981;SDS011;3018;48.730;9.336;2023-06-26T14:34:24;4.65;;;4.20;;
5981;SDS011;3018;48.730;9.336;2023-06-26T14:36:50;5.43;;;4.13;;
5981;SDS011;3018;48.730;9.336;2023-06-26T14:39:17;6.13;;;4.43;;
5981;SDS011;3018;48.730;9.336;2023-06-26T14:41:43;6.50;;;4.10;;
5981;SDS011;3018;48.730;9.336;2023-06-26T14:44:09;5.65;;;3.55;;
5981;SDS011;3018;48.730;9.336;2023-06-26T14:46:38;4.15;;;3.85;;
5981;SDS011;3018;48.730;9.336;2023-06-26T14:49:05;6.30;;;4.10;;
5981;SDS011;3018;48.730;9.336;2023-06-26T14:51:31;5.40;;;4.38;;
5981;SDS011;3018;48.730;9.336;2023-06-26T14:53:57;4.30;;;3.80;;
5981;SDS011;3018;48.730;9.336;2023-06-26T14:56:24;4.53;;;3.83;;
5981;SDS011;3018;48.730;9.336;2023-06-26T14:58:50;4.32;;;3.50;;
5981;SDS011;3018;48.730;9.336;2023-06-26T15:01:17;8.93;;;3.78;;
5981;SDS011;3018;48.730;9.336;2023-06-26T15:03:45;5.28;;;3.50;;
5981;SDS011;3018;48.730;9.336;2023-06-26T15:06:12;3.78;;;3.47;;
5981;SDS011;3018;48.730;9.336;2023-06-26T15:08:38;3.53;;;3.15;;
5981;SDS011;3018;48.730;9.336;2023-06-26T15:11:04;4.65;;;3.20;;
5981;SDS011;3018;48.730;9.336;2023-06-26T15:13:31;2.90;;;2.80;;